createdAt,value
2017-10-21T00:00:57.460Z,1013.02
2017-10-21T00:01:57.669Z,1012.97
2017-10-21T00:02:58.414Z,1012.98
2017-10-21T00:03:58.078Z,1012.95
2017-10-21T00:04:57.985Z,1012.97
2017-10-21T00:05:57.825Z,1013.02
2017-10-21T00:06:57.669Z,1013.04
2017-10-21T00:07:58.266Z,1013.01
2017-10-21T00:08:58.791Z,1013.05
2017-10-21T00:09:57.691Z,1013.02
2017-10-21T00:10:57.494Z,1013.02
2017-10-21T00:11:57.744Z,1013.03
2017-10-21T00:12:57.955Z,1013.03
2017-10-21T00:13:58.231Z,1013.02
2017-10-21T00:14:58.526Z,1013.02
2017-10-21T00:15:57.945Z,1013.07
2017-10-21T00:16:58.736Z,1013.05
2017-10-21T00:17:58.059Z,1013.09
2017-10-21T00:18:58.161Z,1013.09
2017-10-21T00:19:57.823Z,1013.11
2017-10-21T00:20:59.311Z,1013.18
2017-10-21T00:21:58.618Z,1013.12
2017-10-21T00:22:57.762Z,1013.15
2017-10-21T00:23:58.930Z,1013.14
2017-10-21T00:24:58.105Z,1013.13
2017-10-21T00:25:58.804Z,1013.11
2017-10-21T00:26:57.588Z,1013.16
2017-10-21T00:27:57.934Z,1013.18
2017-10-21T00:28:57.930Z,1013.17
2017-10-21T00:30:27.366Z,1013.14
2017-10-21T00:30:58.635Z,1013.14
2017-10-21T00:31:58.118Z,1013.13
2017-10-21T00:32:58.258Z,1013.14
2017-10-21T00:33:58.248Z,1013.20
2017-10-21T00:34:59.041Z,1013.16
2017-10-21T00:35:57.991Z,1013.21
2017-10-21T00:36:58.319Z,1013.22
2017-10-21T00:37:58.124Z,1013.24
2017-10-21T00:38:58.414Z,1013.24
2017-10-21T00:39:57.198Z,1013.23
2017-10-21T00:40:59.010Z,1013.24
2017-10-21T00:41:58.414Z,1013.25
2017-10-21T00:42:57.894Z,1013.17
2017-10-21T00:43:57.550Z,1013.22
2017-10-21T00:44:57.419Z,1013.20
2017-10-21T00:45:57.788Z,1013.22
2017-10-21T00:46:58.003Z,1013.21
2017-10-21T00:47:58.074Z,1013.27
2017-10-21T00:48:58.267Z,1013.22
2017-10-21T00:49:57.852Z,1013.23
2017-10-21T00:50:58.121Z,1013.26
2017-10-21T00:51:58.248Z,1013.23
2017-10-21T00:52:58.504Z,1013.24
2017-10-21T00:53:57.743Z,1013.22
2017-10-21T00:54:57.553Z,1013.23
2017-10-21T00:55:57.369Z,1013.23
2017-10-21T00:56:59.422Z,1013.20
2017-10-21T00:57:57.538Z,1013.22
2017-10-21T00:58:57.913Z,1013.23
2017-10-21T00:59:58.310Z,1013.19
2017-10-21T01:00:57.699Z,1013.20
2017-10-21T01:01:59.239Z,1013.18
2017-10-21T01:02:57.982Z,1013.18
2017-10-21T01:03:57.817Z,1013.16
2017-10-21T01:04:58.004Z,1013.20
2017-10-21T01:05:57.802Z,1013.18
2017-10-21T01:06:58.370Z,1013.22
2017-10-21T01:07:58.028Z,1013.21
2017-10-21T01:08:58.244Z,1013.19
2017-10-21T01:09:59.131Z,1013.18
2017-10-21T01:10:58.475Z,1013.16
2017-10-21T01:11:57.881Z,1013.18
2017-10-21T01:12:58.119Z,1013.15
2017-10-21T01:13:58.441Z,1013.13
2017-10-21T01:14:57.665Z,1013.13
2017-10-21T01:15:57.753Z,1013.11
2017-10-21T01:16:58.119Z,1013.10
2017-10-21T01:17:58.916Z,1013.07
2017-10-21T01:18:57.655Z,1013.12
2017-10-21T01:19:57.829Z,1013.08
2017-10-21T01:20:57.887Z,1013.11
2017-10-21T01:21:58.067Z,1013.08
2017-10-21T01:22:58.532Z,1013.11
2017-10-21T01:23:57.844Z,1013.05
2017-10-21T01:24:57.922Z,1013.07
2017-10-21T01:25:58.467Z,1013.06
2017-10-21T01:26:57.758Z,1013.06
2017-10-21T01:27:57.768Z,1013.07
2017-10-21T01:28:58.321Z,1013.05
2017-10-21T01:29:58.211Z,1013.04
2017-10-21T01:30:58.704Z,1013.01
2017-10-21T01:31:57.847Z,1012.99
2017-10-21T01:32:57.934Z,1012.98
2017-10-21T01:33:58.210Z,1012.98
2017-10-21T01:34:58.187Z,1012.97
2017-10-21T01:35:57.588Z,1012.98
2017-10-21T01:36:57.653Z,1012.94
2017-10-21T01:37:57.852Z,1012.95
2017-10-21T01:38:58.694Z,1012.96
2017-10-21T01:39:57.943Z,1012.94
2017-10-21T01:40:58.154Z,1012.90
2017-10-21T01:41:58.203Z,1012.88
2017-10-21T01:42:57.910Z,1012.91
2017-10-21T01:43:57.783Z,1012.88
2017-10-21T01:44:57.482Z,1012.81
2017-10-21T01:45:58.021Z,1012.92
2017-10-21T01:46:58.166Z,1012.88
2017-10-21T01:47:58.237Z,1012.88
2017-10-21T01:48:57.981Z,1012.86
2017-10-21T01:49:58.087Z,1012.86
2017-10-21T01:50:57.473Z,1012.89
2017-10-21T01:51:58.096Z,1012.94
2017-10-21T01:52:58.134Z,1012.93
2017-10-21T01:53:57.425Z,1012.86
2017-10-21T01:54:57.705Z,1012.89
2017-10-21T01:55:57.846Z,1012.84
2017-10-21T01:56:57.885Z,1012.88
2017-10-21T01:57:58.002Z,1012.83
2017-10-21T01:58:57.444Z,1012.85
2017-10-21T01:59:57.711Z,1012.82
2017-10-21T02:00:57.472Z,1012.89
2017-10-21T02:01:57.886Z,1012.91
2017-10-21T02:02:58.072Z,1012.93
2017-10-21T02:03:58.283Z,1012.90
2017-10-21T02:04:57.674Z,1012.90
2017-10-21T02:05:57.818Z,1012.87
2017-10-21T02:06:58.308Z,1012.84
2017-10-21T02:07:57.394Z,1012.85
2017-10-21T02:08:57.212Z,1012.92
2017-10-21T02:09:58.339Z,1012.91
2017-10-21T02:10:57.560Z,1012.90
2017-10-21T02:11:57.288Z,1012.93
2017-10-21T02:12:58.652Z,1012.93
2017-10-21T02:13:58.013Z,1012.89
2017-10-21T02:14:57.671Z,1012.87
2017-10-21T02:15:57.433Z,1012.87
2017-10-21T02:16:57.058Z,1012.84
2017-10-21T02:17:57.516Z,1012.84
2017-10-21T02:18:58.016Z,1012.83
2017-10-21T02:19:58.196Z,1012.85
2017-10-21T02:20:58.286Z,1012.84
2017-10-21T02:21:58.214Z,1012.81
2017-10-21T02:22:57.370Z,1012.82
2017-10-21T02:23:57.268Z,1012.78
2017-10-21T02:24:57.384Z,1012.79
2017-10-21T02:25:57.202Z,1012.77
2017-10-21T02:26:58.067Z,1012.80
2017-10-21T02:27:57.863Z,1012.78
2017-10-21T02:28:57.588Z,1012.77
2017-10-21T02:29:58.318Z,1012.80
2017-10-21T02:30:57.554Z,1012.81
2017-10-21T02:31:57.324Z,1012.75
2017-10-21T02:32:56.967Z,1012.75
2017-10-21T02:33:58.096Z,1012.78
2017-10-21T02:34:58.130Z,1012.77
2017-10-21T02:35:57.891Z,1012.75
2017-10-21T02:36:57.924Z,1012.78
2017-10-21T02:37:58.041Z,1012.68
2017-10-21T02:38:57.983Z,1012.77
2017-10-21T02:39:58.428Z,1012.79
2017-10-21T02:40:57.881Z,1012.79
2017-10-21T02:41:57.835Z,1012.82
2017-10-21T02:42:57.561Z,1012.83
2017-10-21T02:43:57.324Z,1012.80
2017-10-21T02:44:57.088Z,1012.80
2017-10-21T02:45:58.442Z,1012.78
2017-10-21T02:46:57.476Z,1012.80
2017-10-21T02:47:57.813Z,1012.80
2017-10-21T02:48:57.517Z,1012.76
2017-10-21T02:49:57.457Z,1012.78
2017-10-21T02:50:57.470Z,1012.77
2017-10-21T02:51:58.175Z,1012.76
2017-10-21T02:52:58.413Z,1012.78
2017-10-21T02:53:57.324Z,1012.75
2017-10-21T02:54:57.201Z,1012.73
2017-10-21T02:55:58.419Z,1012.76
2017-10-21T02:56:57.725Z,1012.71
2017-10-21T02:57:58.052Z,1012.73
2017-10-21T02:58:57.911Z,1012.74
2017-10-21T02:59:57.572Z,1012.74
2017-10-21T03:00:57.657Z,1012.71
2017-10-21T03:01:58.115Z,1012.69
2017-10-21T03:02:58.418Z,1012.66
2017-10-21T03:03:57.461Z,1012.66
2017-10-21T03:04:57.432Z,1012.64
2017-10-21T03:05:57.321Z,1012.63
2017-10-21T03:06:57.511Z,1012.67
2017-10-21T03:07:57.598Z,1012.63
2017-10-21T03:08:57.749Z,1012.59
2017-10-21T03:09:57.913Z,1012.52
2017-10-21T03:10:58.116Z,1012.54
2017-10-21T03:11:57.389Z,1012.54
2017-10-21T03:12:57.713Z,1012.55
2017-10-21T03:13:57.749Z,1012.56
2017-10-21T03:14:58.129Z,1012.52
2017-10-21T03:15:58.077Z,1012.47
2017-10-21T03:16:58.221Z,1012.48
2017-10-21T03:17:58.709Z,1012.46
2017-10-21T03:18:58.133Z,1012.48
2017-10-21T03:19:58.304Z,1012.42
2017-10-21T03:20:57.261Z,1012.44
2017-10-21T03:21:57.397Z,1012.47
2017-10-21T03:22:57.238Z,1012.46
2017-10-21T03:23:57.650Z,1012.44
2017-10-21T03:24:57.790Z,1012.43
2017-10-21T03:25:57.957Z,1012.45
2017-10-21T03:26:58.063Z,1012.44
2017-10-21T03:27:58.083Z,1012.48
2017-10-21T03:28:58.161Z,1012.43
2017-10-21T03:29:57.973Z,1012.47
2017-10-21T03:30:58.214Z,1012.42
2017-10-21T03:31:57.439Z,1012.43
2017-10-21T03:32:57.373Z,1012.41
2017-10-21T03:33:57.783Z,1012.47
2017-10-21T03:34:57.973Z,1012.44
2017-10-21T03:35:57.967Z,1012.43
2017-10-21T03:36:58.099Z,1012.45
2017-10-21T03:37:58.014Z,1012.43
2017-10-21T03:38:59.234Z,1012.49
2017-10-21T03:39:58.063Z,1012.42
2017-10-21T03:42:04.450Z,1012.47
2017-10-21T03:43:01.532Z,1012.41
2017-10-21T03:44:01.744Z,1012.38
2017-10-21T03:45:02.189Z,1012.43
2017-10-21T03:46:01.428Z,1012.42
2017-10-21T03:47:01.387Z,1012.46
2017-10-21T03:48:01.400Z,1012.44
2017-10-21T03:49:01.244Z,1012.44
2017-10-21T03:50:01.412Z,1012.42
2017-10-21T03:51:01.643Z,1012.41
2017-10-21T03:52:01.138Z,1012.46
2017-10-21T03:53:01.324Z,1012.45
2017-10-21T03:54:01.482Z,1012.42
2017-10-21T03:55:02.123Z,1012.42
2017-10-21T03:56:01.691Z,1012.47
2017-10-21T03:57:01.792Z,1012.48
2017-10-21T03:58:01.360Z,1012.49
2017-10-21T03:59:01.712Z,1012.49
2017-10-21T04:00:01.947Z,1012.42
2017-10-21T04:01:02.479Z,1012.36
2017-10-21T04:02:01.551Z,1012.26
2017-10-21T04:03:01.969Z,1012.26
2017-10-21T04:04:02.302Z,1012.25
2017-10-21T04:05:01.534Z,1012.31
2017-10-21T04:06:01.747Z,1012.20
2017-10-21T04:07:03.079Z,1012.17
2017-10-21T04:08:01.121Z,1012.12
2017-10-21T04:09:01.311Z,1012.11
2017-10-21T04:10:01.573Z,1012.15
2017-10-21T04:11:01.827Z,1012.21
2017-10-21T04:12:02.035Z,1012.29
2017-10-21T04:13:01.803Z,1012.34
2017-10-21T04:14:01.320Z,1012.33
2017-10-21T04:15:01.164Z,1012.35
2017-10-21T04:16:01.627Z,1012.37
2017-10-21T04:17:01.655Z,1012.36
2017-10-21T04:18:02.456Z,1012.28
2017-10-21T04:19:01.791Z,1012.30
2017-10-21T04:20:01.742Z,1012.29
2017-10-21T04:21:04.036Z,1012.31
2017-10-21T04:22:02.130Z,1012.36
2017-10-21T04:23:01.852Z,1012.31
2017-10-21T04:24:02.505Z,1012.34
2017-10-21T04:25:01.486Z,1012.32
2017-10-21T04:26:01.739Z,1012.33
2017-10-21T04:27:01.855Z,1012.28
2017-10-21T04:28:01.838Z,1012.24
2017-10-21T04:29:01.971Z,1012.17
2017-10-21T04:30:01.501Z,1012.14
2017-10-21T04:31:01.815Z,1012.13
2017-10-21T04:32:03.379Z,1012.16
2017-10-21T04:33:01.578Z,1012.19
2017-10-21T04:34:01.217Z,1012.15
2017-10-21T04:35:01.589Z,1012.12
2017-10-21T04:36:01.776Z,1012.13
2017-10-21T04:37:01.625Z,1012.17
2017-10-21T04:38:01.156Z,1012.14
2017-10-21T04:39:00.916Z,1012.15
2017-10-21T04:40:02.088Z,1012.18
2017-10-21T04:41:01.267Z,1012.16
2017-10-21T04:42:00.801Z,1012.19
2017-10-21T04:43:01.505Z,1012.22
2017-10-21T04:44:01.234Z,1012.18
2017-10-21T04:45:02.099Z,1012.19
2017-10-21T04:46:01.090Z,1012.22
2017-10-21T04:47:01.168Z,1012.27
2017-10-21T04:48:01.522Z,1012.24
2017-10-21T04:49:01.375Z,1012.23
2017-10-21T04:50:01.299Z,1012.26
2017-10-21T04:51:01.338Z,1012.25
2017-10-21T04:52:01.391Z,1012.21
2017-10-21T04:53:01.941Z,1012.23
2017-10-21T04:54:00.760Z,1012.20
2017-10-21T04:55:01.220Z,1012.20
2017-10-21T04:56:01.706Z,1012.23
2017-10-21T04:57:01.349Z,1012.25
2017-10-21T04:58:01.215Z,1012.23
2017-10-21T04:59:01.312Z,1012.20
2017-10-21T05:00:01.735Z,1012.17
2017-10-21T05:01:02.617Z,1012.15
2017-10-21T05:02:01.318Z,1012.09
2017-10-21T05:03:01.376Z,1012.11
2017-10-21T05:04:01.453Z,1012.10
2017-10-21T05:05:01.249Z,1012.09
2017-10-21T05:06:01.574Z,1012.12
2017-10-21T05:07:02.230Z,1012.12
2017-10-21T05:08:01.664Z,1012.13
2017-10-21T05:09:01.919Z,1012.15
2017-10-21T05:10:02.058Z,1012.18
2017-10-21T05:11:00.799Z,1012.18
2017-10-21T05:12:02.307Z,1012.15
2017-10-21T05:13:01.085Z,1012.09
2017-10-21T05:14:01.547Z,1012.10
2017-10-21T05:15:01.240Z,1012.12
2017-10-21T05:16:01.280Z,1012.11
2017-10-21T05:17:01.214Z,1012.14
2017-10-21T05:18:02.216Z,1012.09
2017-10-21T05:19:00.850Z,1012.07
2017-10-21T05:20:01.824Z,1012.05
2017-10-21T05:21:01.990Z,1012.08
2017-10-21T05:22:01.444Z,1012.08
2017-10-21T05:23:02.063Z,1012.01
2017-10-21T05:24:01.124Z,1012.00
2017-10-21T05:25:01.399Z,1011.98
2017-10-21T05:26:01.498Z,1012.00
2017-10-21T05:27:01.643Z,1011.96
2017-10-21T05:28:01.612Z,1011.95
2017-10-21T05:29:01.907Z,1011.94
2017-10-21T05:30:01.040Z,1011.89
2017-10-21T05:31:00.824Z,1011.91
2017-10-21T05:32:01.576Z,1011.84
2017-10-21T05:33:01.792Z,1011.84
2017-10-21T05:34:01.936Z,1011.80
2017-10-21T05:35:01.879Z,1011.80
2017-10-21T05:36:01.176Z,1011.79
2017-10-21T05:37:01.161Z,1011.75
2017-10-21T05:38:01.421Z,1011.78
2017-10-21T05:39:01.105Z,1011.75
2017-10-21T05:40:02.036Z,1011.74
2017-10-21T05:41:00.927Z,1011.75
2017-10-21T05:42:01.622Z,1011.77
2017-10-21T05:43:01.219Z,1011.81
2017-10-21T05:44:01.076Z,1011.84
2017-10-21T05:45:01.951Z,1011.86
2017-10-21T05:46:01.046Z,1011.85
2017-10-21T05:47:02.144Z,1011.86
2017-10-21T05:48:01.195Z,1011.87
2017-10-21T05:49:01.359Z,1011.87
2017-10-21T05:50:01.733Z,1011.86
2017-10-21T05:51:01.457Z,1011.84
2017-10-21T05:52:01.476Z,1011.82
2017-10-21T05:53:01.688Z,1011.81
2017-10-21T05:54:01.378Z,1011.84
2017-10-21T05:55:01.398Z,1011.87
2017-10-21T05:56:01.199Z,1011.82
2017-10-21T05:57:01.435Z,1011.84
2017-10-21T05:58:01.739Z,1011.82
2017-10-21T05:59:01.968Z,1011.82
2017-10-21T06:00:01.776Z,1011.83
2017-10-21T06:01:02.059Z,1011.84
2017-10-21T06:02:01.470Z,1011.85
2017-10-21T06:03:01.225Z,1011.88
2017-10-21T06:04:01.076Z,1011.89
2017-10-21T06:05:01.742Z,1011.89
2017-10-21T06:06:01.026Z,1011.88
2017-10-21T06:07:01.378Z,1011.91
2017-10-21T06:08:01.289Z,1011.88
2017-10-21T06:09:01.658Z,1011.86
2017-10-21T06:10:02.439Z,1011.88
2017-10-21T06:11:01.954Z,1011.90
2017-10-21T06:12:01.375Z,1011.92
2017-10-21T06:13:01.318Z,1011.92
2017-10-21T06:14:01.975Z,1011.96
2017-10-21T06:15:01.589Z,1011.96
2017-10-21T06:16:02.581Z,1011.91
2017-10-21T06:17:01.735Z,1011.89
2017-10-21T06:18:02.749Z,1011.90
2017-10-21T06:19:02.471Z,1011.91
2017-10-21T06:20:01.963Z,1011.91
2017-10-21T06:21:00.991Z,1011.91
2017-10-21T06:22:02.039Z,1011.89
2017-10-21T06:23:02.097Z,1011.88
2017-10-21T06:24:01.337Z,1011.90
2017-10-21T06:25:01.526Z,1011.87
2017-10-21T06:26:01.926Z,1011.89
2017-10-21T06:27:02.920Z,1011.94
2017-10-21T06:28:01.483Z,1011.92
2017-10-21T06:29:02.031Z,1011.94
2017-10-21T06:30:01.274Z,1011.90
2017-10-21T06:31:01.687Z,1011.92
2017-10-21T06:32:02.177Z,1011.84
2017-10-21T06:33:01.260Z,1011.86
2017-10-21T06:34:01.469Z,1011.84
2017-10-21T06:35:01.667Z,1011.87
2017-10-21T06:36:01.500Z,1011.87
2017-10-21T06:37:01.842Z,1011.87
2017-10-21T06:38:02.434Z,1011.87
2017-10-21T06:39:01.885Z,1011.95
2017-10-21T06:40:02.396Z,1011.98
2017-10-21T06:41:01.124Z,1011.94
2017-10-21T06:42:02.057Z,1011.98
2017-10-21T06:43:01.633Z,1012.00
2017-10-21T06:44:02.449Z,1011.96
2017-10-21T06:45:01.838Z,1011.97
2017-10-21T06:46:01.484Z,1011.94
2017-10-21T06:47:02.867Z,1011.91
2017-10-21T06:48:01.169Z,1011.87
2017-10-21T06:49:01.294Z,1011.85
2017-10-21T06:50:01.880Z,1011.79
2017-10-21T06:51:02.570Z,1011.79
2017-10-21T06:52:01.818Z,1011.77
2017-10-21T06:53:01.578Z,1011.77
2017-10-21T06:54:01.195Z,1011.79
2017-10-21T06:55:01.523Z,1011.77
2017-10-21T06:56:01.863Z,1011.76
2017-10-21T06:57:02.148Z,1011.79
2017-10-21T06:58:01.079Z,1011.76
2017-10-21T06:59:00.917Z,1011.77
2017-10-21T07:00:01.718Z,1011.78
2017-10-21T07:01:01.783Z,1011.74
2017-10-21T07:02:02.581Z,1011.71
2017-10-21T07:03:01.557Z,1011.74
2017-10-21T07:04:01.644Z,1011.73
2017-10-21T07:05:02.855Z,1011.75
2017-10-21T07:06:01.278Z,1011.80
2017-10-21T07:07:01.214Z,1011.79
2017-10-21T07:08:01.151Z,1011.75
2017-10-21T07:09:01.645Z,1011.70
2017-10-21T07:10:02.004Z,1011.72
2017-10-21T07:11:01.844Z,1011.73
2017-10-21T07:12:02.156Z,1011.75
2017-10-21T07:13:02.372Z,1011.71
2017-10-21T07:14:01.738Z,1011.74
2017-10-21T07:15:02.063Z,1011.72
2017-10-21T07:16:01.835Z,1011.77
2017-10-21T07:17:00.886Z,1011.73
2017-10-21T07:18:01.913Z,1011.72
2017-10-21T07:19:00.784Z,1011.70
2017-10-21T07:20:00.980Z,1011.73
2017-10-21T07:21:01.625Z,1011.73
2017-10-21T07:22:01.882Z,1011.71
2017-10-21T07:23:01.918Z,1011.67
2017-10-21T07:24:01.819Z,1011.67
2017-10-21T07:25:01.913Z,1011.66
2017-10-21T07:26:02.108Z,1011.64
2017-10-21T07:27:01.661Z,1011.64
2017-10-21T07:28:01.925Z,1011.68
2017-10-21T07:29:01.273Z,1011.67
2017-10-21T07:30:01.727Z,1011.69
2017-10-21T07:31:02.647Z,1011.63
2017-10-21T07:32:01.456Z,1011.58
2017-10-21T07:33:01.342Z,1011.61
2017-10-21T07:34:01.639Z,1011.68
2017-10-21T07:35:01.661Z,1011.72
2017-10-21T07:36:01.469Z,1011.70
2017-10-21T07:37:03.371Z,1011.68
2017-10-21T07:38:01.288Z,1011.64
2017-10-21T07:39:01.606Z,1011.66
2017-10-21T07:40:01.844Z,1011.62
2017-10-21T07:41:02.270Z,1011.66
2017-10-21T07:42:01.983Z,1011.70
2017-10-21T07:43:01.416Z,1011.65
2017-10-21T07:44:03.022Z,1011.67
2017-10-21T07:45:01.371Z,1011.70
2017-10-21T07:46:01.615Z,1011.71
2017-10-21T07:47:02.194Z,1011.72
2017-10-21T07:48:01.317Z,1011.71
2017-10-21T07:49:01.729Z,1011.72
2017-10-21T07:50:01.771Z,1011.82
2017-10-21T07:51:02.082Z,1011.69
2017-10-21T07:52:00.979Z,1011.72
2017-10-21T07:53:01.479Z,1011.70
2017-10-21T07:54:01.732Z,1011.74
2017-10-21T07:55:01.531Z,1011.66
2017-10-21T07:56:01.634Z,1011.69
2017-10-21T07:57:01.712Z,1011.70
2017-10-21T07:58:02.153Z,1011.71
2017-10-21T07:59:01.560Z,1011.71
2017-10-21T08:00:01.849Z,1011.64
2017-10-21T08:01:01.429Z,1011.61
2017-10-21T08:02:01.837Z,1011.63
2017-10-21T08:03:01.953Z,1011.64
2017-10-21T08:04:01.087Z,1011.64
2017-10-21T08:05:02.154Z,1011.72
2017-10-21T08:06:01.107Z,1011.70
2017-10-21T08:07:00.967Z,1011.68
2017-10-21T08:08:00.788Z,1011.65
2017-10-21T08:09:02.531Z,1011.64
2017-10-21T08:10:01.531Z,1011.64
2017-10-21T08:11:02.035Z,1011.57
2017-10-21T08:12:02.336Z,1011.58
2017-10-21T08:13:01.622Z,1011.56
2017-10-21T08:14:02.041Z,1011.58
2017-10-21T08:15:01.809Z,1011.61
2017-10-21T08:16:01.335Z,1011.55
2017-10-21T08:17:01.627Z,1011.54
2017-10-21T08:18:02.090Z,1011.56
2017-10-21T08:19:01.939Z,1011.53
2017-10-21T08:20:01.667Z,1011.52
2017-10-21T08:21:02.110Z,1011.47
2017-10-21T08:22:01.766Z,1011.45
2017-10-21T08:23:01.098Z,1011.48
2017-10-21T08:24:01.879Z,1011.44
2017-10-21T08:25:02.309Z,1011.40
2017-10-21T08:26:01.702Z,1011.43
2017-10-21T08:27:02.249Z,1011.41
2017-10-21T08:28:01.840Z,1011.36
2017-10-21T08:29:01.243Z,1011.36
2017-10-21T08:30:02.447Z,1011.38
2017-10-21T08:31:02.579Z,1011.31
2017-10-21T08:32:01.965Z,1011.40
2017-10-21T08:33:01.441Z,1011.37
2017-10-21T08:34:01.653Z,1011.38
2017-10-21T08:35:01.216Z,1011.39
2017-10-21T08:36:01.241Z,1011.37
2017-10-21T08:37:01.927Z,1011.39
2017-10-21T08:38:00.895Z,1011.34
2017-10-21T08:39:01.174Z,1011.37
2017-10-21T08:40:01.823Z,1011.38
2017-10-21T08:41:01.437Z,1011.44
2017-10-21T08:42:01.617Z,1011.46
2017-10-21T08:43:01.800Z,1011.47
2017-10-21T08:44:01.733Z,1011.52
2017-10-21T08:45:02.715Z,1011.55
2017-10-21T08:46:02.187Z,1011.48
2017-10-21T08:47:02.063Z,1011.49
2017-10-21T08:48:01.711Z,1011.53
2017-10-21T08:49:03.107Z,1011.49
2017-10-21T08:50:01.290Z,1011.43
2017-10-21T08:51:01.982Z,1011.42
2017-10-21T08:52:01.775Z,1011.44
2017-10-21T08:53:01.897Z,1011.43
2017-10-21T08:54:01.656Z,1011.41
2017-10-21T08:55:01.755Z,1011.41
2017-10-21T08:56:01.109Z,1011.44
2017-10-21T08:57:01.884Z,1011.37
2017-10-21T08:58:02.509Z,1011.40
2017-10-21T08:59:02.628Z,1011.43
2017-10-21T09:00:02.242Z,1011.36
2017-10-21T09:01:01.881Z,1011.33
2017-10-21T09:02:01.344Z,1011.39
2017-10-21T09:03:03.027Z,1011.43
2017-10-21T09:04:01.138Z,1011.44
2017-10-21T09:05:01.353Z,1011.38
2017-10-21T09:06:01.900Z,1011.33
2017-10-21T09:07:02.506Z,1011.42
2017-10-21T09:08:01.604Z,1011.37
2017-10-21T09:09:01.957Z,1011.33
2017-10-21T09:10:00.972Z,1011.36
2017-10-21T09:11:01.255Z,1011.37
2017-10-21T09:12:01.687Z,1011.35
2017-10-21T09:13:01.841Z,1011.34
2017-10-21T09:14:01.398Z,1011.32
2017-10-21T09:15:01.308Z,1011.37
2017-10-21T09:16:01.163Z,1011.41
2017-10-21T09:17:02.139Z,1011.39
2017-10-21T09:18:01.210Z,1011.43
2017-10-21T09:19:01.676Z,1011.43
2017-10-21T09:20:01.406Z,1011.48
2017-10-21T09:21:02.107Z,1011.56
2017-10-21T09:22:01.976Z,1011.53
2017-10-21T09:23:01.088Z,1011.51
2017-10-21T09:24:01.558Z,1011.56
2017-10-21T09:25:02.094Z,1011.49
2017-10-21T09:26:01.176Z,1011.51
2017-10-21T09:27:01.504Z,1011.48
2017-10-21T09:28:01.887Z,1011.46
2017-10-21T09:29:00.871Z,1011.44
2017-10-21T09:30:01.911Z,1011.45
2017-10-21T09:31:00.943Z,1011.45
2017-10-21T09:32:01.305Z,1011.48
2017-10-21T09:33:01.296Z,1011.43
2017-10-21T09:34:01.380Z,1011.47
2017-10-21T09:35:01.032Z,1011.46
2017-10-21T09:36:01.645Z,1011.44
2017-10-21T09:37:03.312Z,1011.44
2017-10-21T09:38:01.572Z,1011.44
2017-10-21T09:39:01.306Z,1011.41
2017-10-21T09:40:01.522Z,1011.39
2017-10-21T09:41:01.994Z,1011.33
2017-10-21T09:42:01.530Z,1011.35
2017-10-21T09:43:02.082Z,1011.36
2017-10-21T09:44:01.276Z,1011.33
2017-10-21T09:45:01.581Z,1011.34
2017-10-21T09:46:00.883Z,1011.32
2017-10-21T09:47:01.076Z,1011.30
2017-10-21T09:48:02.033Z,1011.27
2017-10-21T09:49:02.120Z,1011.26
2017-10-21T09:50:03.264Z,1011.20
2017-10-21T09:51:02.568Z,1011.20
2017-10-21T09:52:01.894Z,1011.20
2017-10-21T09:53:01.970Z,1011.18
2017-10-21T09:54:01.856Z,1011.16
2017-10-21T09:55:01.314Z,1011.13
2017-10-21T09:56:01.321Z,1011.09
2017-10-21T09:57:01.487Z,1011.14
2017-10-21T09:58:02.495Z,1011.12
2017-10-21T09:59:02.151Z,1011.10
2017-10-21T10:00:01.253Z,1011.09
2017-10-21T10:01:01.774Z,1011.13
2017-10-21T10:02:01.292Z,1011.12
2017-10-21T10:03:02.278Z,1011.08
2017-10-21T10:04:02.634Z,1011.14
2017-10-21T10:05:01.864Z,1011.16
2017-10-21T10:06:01.340Z,1011.11
2017-10-21T10:07:02.213Z,1011.13
2017-10-21T10:08:02.404Z,1011.17
2017-10-21T10:09:01.561Z,1011.17
2017-10-21T10:10:02.392Z,1011.18
2017-10-21T10:11:12.624Z,1011.16
2017-10-21T10:12:14.500Z,1011.24
2017-10-21T10:13:02.701Z,1011.21
2017-10-21T10:14:01.999Z,1011.21
2017-10-21T10:15:02.013Z,1011.22
2017-10-21T10:16:09.792Z,1011.19
2017-10-21T10:17:07.378Z,1011.19
2017-10-21T10:18:07.433Z,1011.19
2017-10-21T10:19:03.513Z,1011.22
2017-10-21T10:20:03.628Z,1011.14
2017-10-21T10:21:03.814Z,1011.17
2017-10-21T10:22:01.070Z,1011.16
2017-10-21T10:23:02.793Z,1011.12
2017-10-21T10:24:00.979Z,1011.14
2017-10-21T10:25:01.150Z,1011.10
2017-10-21T10:26:02.311Z,1011.21
2017-10-21T10:27:01.596Z,1011.20
2017-10-21T10:28:04.842Z,1011.25
2017-10-21T10:29:01.299Z,1011.26
2017-10-21T10:30:01.944Z,1011.28
2017-10-21T10:31:02.620Z,1011.28
2017-10-21T10:32:02.400Z,1011.32
2017-10-21T10:33:02.899Z,1011.31
2017-10-21T10:34:01.080Z,1011.27
2017-10-21T10:35:02.037Z,1011.32
2017-10-21T10:36:01.547Z,1011.31
2017-10-21T10:37:02.377Z,1011.28
2017-10-21T10:38:01.425Z,1011.28
2017-10-21T10:39:01.243Z,1011.29
2017-10-21T10:40:01.480Z,1011.24
2017-10-21T10:41:01.881Z,1011.25
2017-10-21T10:42:01.341Z,1011.24
2017-10-21T10:43:01.443Z,1011.19
2017-10-21T10:44:01.595Z,1011.22
2017-10-21T10:45:01.840Z,1011.17
2017-10-21T10:46:02.429Z,1011.17
2017-10-21T10:47:01.543Z,1011.17
2017-10-21T10:48:02.234Z,1011.18
2017-10-21T10:49:01.472Z,1011.20
2017-10-21T10:50:02.019Z,1011.20
2017-10-21T10:51:01.243Z,1011.15
2017-10-21T10:52:01.861Z,1011.11
2017-10-21T10:53:01.393Z,1011.12
2017-10-21T10:54:01.913Z,1011.14
2017-10-21T10:55:01.341Z,1011.15
2017-10-21T10:56:01.918Z,1011.14
2017-10-21T10:57:02.417Z,1011.13
2017-10-21T10:58:01.576Z,1011.11
2017-10-21T10:59:01.801Z,1011.09
2017-10-21T11:00:00.964Z,1011.09
2017-10-21T11:01:01.880Z,1011.07
2017-10-21T11:02:01.202Z,1011.05
2017-10-21T11:03:02.054Z,1011.08
2017-10-21T11:04:01.920Z,1011.06
2017-10-21T11:05:01.153Z,1011.08
2017-10-21T11:06:01.784Z,1011.10
2017-10-21T11:07:01.578Z,1011.06
2017-10-21T11:08:02.266Z,1011.03
2017-10-21T11:09:01.514Z,1011.02
2017-10-21T11:10:03.566Z,1011.04
2017-10-21T11:11:02.140Z,1011.00
2017-10-21T11:12:02.153Z,1010.99
2017-10-21T11:13:01.809Z,1010.98
2017-10-21T11:14:02.005Z,1011.02
2017-10-21T11:15:02.159Z,1010.93
2017-10-21T11:16:02.355Z,1010.98
2017-10-21T11:17:02.598Z,1011.00
2017-10-21T11:18:01.339Z,1010.97
2017-10-21T11:19:02.005Z,1010.98
2017-10-21T11:20:02.176Z,1010.94
2017-10-21T11:21:01.503Z,1010.97
2017-10-21T11:22:01.857Z,1010.94
2017-10-21T11:23:01.614Z,1010.95
2017-10-21T11:24:01.324Z,1010.93
2017-10-21T11:25:01.937Z,1010.96
2017-10-21T11:26:01.300Z,1010.92
2017-10-21T11:27:01.713Z,1010.75
2017-10-21T11:28:01.455Z,1010.88
2017-10-21T11:29:02.146Z,1010.91
2017-10-21T11:30:01.809Z,1010.92
2017-10-21T11:31:01.764Z,1010.88
2017-10-21T11:32:01.538Z,1010.87
2017-10-21T11:33:03.170Z,1010.86
2017-10-21T11:34:01.891Z,1010.86
2017-10-21T11:35:02.420Z,1010.84
2017-10-21T11:36:02.312Z,1010.86
2017-10-21T11:37:02.094Z,1010.85
2017-10-21T11:38:02.435Z,1010.82
2017-10-21T11:39:01.681Z,1010.86
2017-10-21T11:40:02.104Z,1010.84
2017-10-21T11:41:01.922Z,1010.78
2017-10-21T11:42:01.593Z,1010.83
2017-10-21T11:43:01.638Z,1010.84
2017-10-21T11:44:00.932Z,1010.80
2017-10-21T11:45:02.684Z,1010.80
2017-10-21T11:46:01.015Z,1010.78
2017-10-21T11:47:01.281Z,1010.75
2017-10-21T11:48:01.966Z,1010.79
2017-10-21T11:49:02.917Z,1010.81
2017-10-21T11:50:01.542Z,1010.80
2017-10-21T11:51:02.112Z,1010.77
2017-10-21T11:52:01.473Z,1010.82
2017-10-21T11:53:02.171Z,1010.79
2017-10-21T11:54:01.849Z,1010.82
2017-10-21T11:55:02.290Z,1010.76
2017-10-21T11:56:02.286Z,1010.82
2017-10-21T11:57:01.710Z,1010.79
2017-10-21T11:58:01.510Z,1010.77
2017-10-21T11:59:02.239Z,1010.75
2017-10-21T12:00:02.421Z,1010.75
2017-10-21T12:01:01.834Z,1010.72
2017-10-21T12:02:01.890Z,1010.74
2017-10-21T12:03:01.343Z,1010.79
2017-10-21T12:04:02.099Z,1010.78
2017-10-21T12:05:02.641Z,1010.79
2017-10-21T12:06:01.157Z,1010.77
2017-10-21T12:07:01.788Z,1010.79